sensor_id;sensor_type;location;lat;lon;timestamp;P1;durP1;ratioP1;P2;durP2;ratioP2
23222;SDS011;11780;13.904;100.620;2023-08-20T00:00:07;16.98;;;8.07;;
23222;SDS011;11780;13.904;100.620;2023-08-20T00:02:38;21.45;;;10.43;;
23222;SDS011;11780;13.904;100.620;2023-08-20T00:05:15;16.15;;;9.63;;
23222;SDS011;11780;13.904;100.620;2023-08-20T00:07:45;18.60;;;10.20;;
23222;SDS011;11780;13.904;100.620;2023-08-20T00:10:16;17.13;;;9.97;;
23222;SDS011;11780;13.904;100.620;2023-08-20T00:12:47;17.70;;;9.20;;
23222;SDS011;11780;13.904;100.620;2023-08-20T00:15:17;19.20;;;9.53;;
23222;SDS011;11780;13.904;100.620;2023-08-20T00:17:49;19.50;;;10.90;;
23222;SDS011;11780;13.904;100.620;2023-08-20T00:20:20;18.23;;;9.45;;
23222;SDS011;11780;13.904;100.620;2023-08-20T00:22:51;23.23;;;10.10;;
23222;SDS011;11780;13.904;100.620;2023-08-20T00:25:22;20.05;;;9.90;;
23222;SDS011;11780;13.904;100.620;2023-08-20T00:27:52;19.47;;;11.67;;
23222;SDS011;11780;13.904;100.620;2023-08-20T00:30:23;33.75;;;17.00;;
23222;SDS011;11780;13.904;100.620;2023-08-20T00:32:53;36.80;;;18.30;;
23222;SDS011;11780;13.904;100.620;2023-08-20T00:37:55;22.67;;;13.32;;
23222;SDS011;11780;13.904;100.620;2023-08-20T00:40:26;39.20;;;15.43;;
23222;SDS011;11780;13.904;100.620;2023-08-20T00:42:57;32.78;;;13.38;;
23222;SDS011;11780;13.904;100.620;2023-08-20T00:45:28;29.23;;;13.33;;
23222;SDS011;11780;13.904;100.620;2023-08-20T00:47:59;21.63;;;11.73;;
23222;SDS011;11780;13.904;100.620;2023-08-20T00:50:29;17.75;;;11.45;;
23222;SDS011;11780;13.904;100.620;2023-08-20T00:53:01;22.85;;;11.25;;
23222;SDS011;11780;13.904;100.620;2023-08-20T00:55:32;17.67;;;9.88;;
23222;SDS011;11780;13.904;100.620;2023-08-20T00:58:02;20.27;;;10.73;;
23222;SDS011;11780;13.904;100.620;2023-08-20T01:00:33;17.75;;;10.10;;
23222;SDS011;11780;13.904;100.620;2023-08-20T01:03:04;19.25;;;10.88;;
23222;SDS011;11780;13.904;100.620;2023-08-20T01:05:37;17.40;;;9.70;;
23222;SDS011;11780;13.904;100.620;2023-08-20T01:13:22;18.63;;;9.70;;
23222;SDS011;11780;13.904;100.620;2023-08-20T01:15:53;17.20;;;9.65;;
23222;SDS011;11780;13.904;100.620;2023-08-20T01:18:23;20.30;;;10.60;;
23222;SDS011;11780;13.904;100.620;2023-08-20T01:21:02;18.38;;;11.18;;
23222;SDS011;11780;13.904;100.620;2023-08-20T01:29:15;22.60;;;12.40;;
23222;SDS011;11780;13.904;100.620;2023-08-20T01:31:46;18.25;;;11.05;;
23222;SDS011;11780;13.904;100.620;2023-08-20T01:34:18;16.73;;;10.93;;
23222;SDS011;11780;13.904;100.620;2023-08-20T01:36:50;18.00;;;10.57;;
23222;SDS011;11780;13.904;100.620;2023-08-20T01:39:20;17.38;;;11.95;;
23222;SDS011;11780;13.904;100.620;2023-08-20T01:41:52;23.77;;;12.95;;
23222;SDS011;11780;13.904;100.620;2023-08-20T01:44:25;21.65;;;11.35;;
23222;SDS011;11780;13.904;100.620;2023-08-20T01:46:56;20.10;;;10.63;;
23222;SDS011;11780;13.904;100.620;2023-08-20T01:57:03;18.33;;;9.73;;
23222;SDS011;11780;13.904;100.620;2023-08-20T01:59:35;18.83;;;10.02;;
23222;SDS011;11780;13.904;100.620;2023-08-20T02:02:06;14.55;;;8.88;;
23222;SDS011;11780;13.904;100.620;2023-08-20T02:04:36;15.52;;;9.18;;
23222;SDS011;11780;13.904;100.620;2023-08-20T02:07:07;17.50;;;9.53;;
23222;SDS011;11780;13.904;100.620;2023-08-20T02:09:37;15.65;;;10.10;;
23222;SDS011;11780;13.904;100.620;2023-08-20T02:12:08;18.92;;;10.38;;
23222;SDS011;11780;13.904;100.620;2023-08-20T02:14:39;22.38;;;8.93;;
23222;SDS011;11780;13.904;100.620;2023-08-20T02:17:10;24.60;;;10.47;;
23222;SDS011;11780;13.904;100.620;2023-08-20T02:19:43;20.35;;;10.52;;
23222;SDS011;11780;13.904;100.620;2023-08-20T02:22:13;18.77;;;9.47;;
23222;SDS011;11780;13.904;100.620;2023-08-20T02:24:44;18.93;;;9.03;;
23222;SDS011;11780;13.904;100.620;2023-08-20T02:27:15;18.60;;;8.73;;
23222;SDS011;11780;13.904;100.620;2023-08-20T02:29:45;20.93;;;10.13;;
23222;SDS011;11780;13.904;100.620;2023-08-20T02:32:16;16.80;;;9.30;;
23222;SDS011;11780;13.904;100.620;2023-08-20T02:34:52;30.63;;;12.70;;
23222;SDS011;11780;13.904;100.620;2023-08-20T02:37:25;24.73;;;12.13;;
23222;SDS011;11780;13.904;100.620;2023-08-20T02:39:56;19.25;;;9.90;;
23222;SDS011;11780;13.904;100.620;2023-08-20T02:42:26;19.33;;;9.70;;
23222;SDS011;11780;13.904;100.620;2023-08-20T02:44:57;19.43;;;9.33;;
23222;SDS011;11780;13.904;100.620;2023-08-20T02:47:27;16.75;;;9.55;;
23222;SDS011;11780;13.904;100.620;2023-08-20T02:49:58;13.60;;;9.90;;
23222;SDS011;11780;13.904;100.620;2023-08-20T02:52:31;17.80;;;9.20;;
23222;SDS011;11780;13.904;100.620;2023-08-20T02:55:01;15.53;;;9.03;;
23222;SDS011;11780;13.904;100.620;2023-08-20T02:57:34;17.45;;;10.48;;
23222;SDS011;11780;13.904;100.620;2023-08-20T03:00:05;17.40;;;9.57;;
23222;SDS011;11780;13.904;100.620;2023-08-20T03:02:40;19.42;;;10.10;;
23222;SDS011;11780;13.904;100.620;2023-08-20T03:07:41;24.08;;;11.18;;
23222;SDS011;11780;13.904;100.620;2023-08-20T03:10:12;22.02;;;12.07;;
23222;SDS011;11780;13.904;100.620;2023-08-20T03:12:42;44.43;;;25.43;;
23222;SDS011;11780;13.904;100.620;2023-08-20T03:15:12;48.33;;;28.90;;
23222;SDS011;11780;13.904;100.620;2023-08-20T03:17:43;33.20;;;20.38;;
23222;SDS011;11780;13.904;100.620;2023-08-20T03:20:14;31.87;;;19.33;;
23222;SDS011;11780;13.904;100.620;2023-08-20T03:22:44;31.37;;;18.27;;
23222;SDS011;11780;13.904;100.620;2023-08-20T03:25:15;27.85;;;15.82;;
23222;SDS011;11780;13.904;100.620;2023-08-20T03:27:45;22.60;;;13.00;;
23222;SDS011;11780;13.904;100.620;2023-08-20T03:30:16;26.47;;;14.33;;
23222;SDS011;11780;13.904;100.620;2023-08-20T03:32:46;25.40;;;13.70;;
23222;SDS011;11780;13.904;100.620;2023-08-20T03:37:48;18.48;;;11.73;;
23222;SDS011;11780;13.904;100.620;2023-08-20T03:40:18;19.97;;;11.37;;
23222;SDS011;11780;13.904;100.620;2023-08-20T03:42:48;22.13;;;12.70;;
23222;SDS011;11780;13.904;100.620;2023-08-20T03:45:19;19.23;;;12.60;;
23222;SDS011;11780;13.904;100.620;2023-08-20T03:47:50;21.90;;;13.05;;
23222;SDS011;11780;13.904;100.620;2023-08-20T03:50:21;21.40;;;13.70;;
23222;SDS011;11780;13.904;100.620;2023-08-20T03:52:52;22.77;;;12.57;;
23222;SDS011;11780;13.904;100.620;2023-08-20T03:55:22;22.10;;;13.97;;
23222;SDS011;11780;13.904;100.620;2023-08-20T09:26:24;17.15;;;10.10;;
23222;SDS011;11780;13.904;100.620;2023-08-20T09:28:55;11.55;;;8.43;;
23222;SDS011;11780;13.904;100.620;2023-08-20T09:31:38;13.82;;;8.40;;
23222;SDS011;11780;13.904;100.620;2023-08-20T09:34:12;12.13;;;8.38;;
23222;SDS011;11780;13.904;100.620;2023-08-20T09:36:43;13.38;;;8.30;;
23222;SDS011;11780;13.904;100.620;2023-08-20T09:39:13;9.93;;;7.33;;
23222;SDS011;11780;13.904;100.620;2023-08-20T09:41:44;10.85;;;6.50;;
23222;SDS011;11780;13.904;100.620;2023-08-20T09:44:17;9.13;;;5.72;;
23222;SDS011;11780;13.904;100.620;2023-08-20T09:46:49;7.63;;;5.57;;
23222;SDS011;11780;13.904;100.620;2023-08-20T09:49:21;7.03;;;5.45;;
23222;SDS011;11780;13.904;100.620;2023-08-20T09:51:54;10.38;;;6.22;;
23222;SDS011;11780;13.904;100.620;2023-08-20T09:57:32;11.40;;;8.52;;
23222;SDS011;11780;13.904;100.620;2023-08-20T10:00:07;16.23;;;8.10;;
23222;SDS011;11780;13.904;100.620;2023-08-20T10:02:40;15.98;;;8.57;;
23222;SDS011;11780;13.904;100.620;2023-08-20T10:05:12;12.18;;;7.60;;
23222;SDS011;11780;13.904;100.620;2023-08-20T10:07:44;13.68;;;8.90;;
23222;SDS011;11780;13.904;100.620;2023-08-20T10:10:16;13.43;;;8.02;;
23222;SDS011;11780;13.904;100.620;2023-08-20T10:12:48;10.48;;;8.57;;
23222;SDS011;11780;13.904;100.620;2023-08-20T10:15:19;9.40;;;7.30;;
23222;SDS011;11780;13.904;100.620;2023-08-20T10:17:52;9.45;;;7.43;;
23222;SDS011;11780;13.904;100.620;2023-08-20T10:22:53;15.10;;;10.02;;
23222;SDS011;11780;13.904;100.620;2023-08-20T10:25:24;14.70;;;10.65;;
23222;SDS011;11780;13.904;100.620;2023-08-20T10:28:10;15.88;;;11.25;;
23222;SDS011;11780;13.904;100.620;2023-08-20T10:33:54;16.90;;;10.45;;
23222;SDS011;11780;13.904;100.620;2023-08-20T10:36:25;14.48;;;12.02;;
23222;SDS011;11780;13.904;100.620;2023-08-20T10:38:58;50.42;;;29.50;;
23222;SDS011;11780;13.904;100.620;2023-08-20T10:41:35;44.88;;;27.02;;
23222;SDS011;11780;13.904;100.620;2023-08-20T10:44:06;49.78;;;24.77;;
23222;SDS011;11780;13.904;100.620;2023-08-20T10:46:36;31.80;;;18.02;;
23222;SDS011;11780;13.904;100.620;2023-08-20T10:49:20;21.92;;;13.82;;
23222;SDS011;11780;13.904;100.620;2023-08-20T10:54:23;17.85;;;11.25;;
23222;SDS011;11780;13.904;100.620;2023-08-20T10:56:57;17.23;;;12.10;;
23222;SDS011;11780;13.904;100.620;2023-08-20T10:59:31;17.77;;;10.85;;
23222;SDS011;11780;13.904;100.620;2023-08-20T11:02:05;14.90;;;11.30;;
23222;SDS011;11780;13.904;100.620;2023-08-20T11:04:44;16.25;;;12.05;;
23222;SDS011;11780;13.904;100.620;2023-08-20T11:07:17;19.20;;;11.18;;
23222;SDS011;11780;13.904;100.620;2023-08-20T11:09:48;17.60;;;11.27;;
23222;SDS011;11780;13.904;100.620;2023-08-20T11:12:20;16.10;;;10.88;;
23222;SDS011;11780;13.904;100.620;2023-08-20T11:14:51;17.63;;;11.10;;
23222;SDS011;11780;13.904;100.620;2023-08-20T11:17:21;17.90;;;11.77;;
23222;SDS011;11780;13.904;100.620;2023-08-20T11:19:52;17.20;;;11.10;;
23222;SDS011;11780;13.904;100.620;2023-08-20T11:22:34;17.08;;;11.57;;
23222;SDS011;11780;13.904;100.620;2023-08-20T11:25:05;14.47;;;8.80;;
23222;SDS011;11780;13.904;100.620;2023-08-20T11:30:06;8.27;;;4.80;;
23222;SDS011;11780;13.904;100.620;2023-08-20T11:32:37;9.32;;;5.40;;
23222;SDS011;11780;13.904;100.620;2023-08-20T11:35:08;10.32;;;5.50;;
23222;SDS011;11780;13.904;100.620;2023-08-20T11:37:40;4.90;;;4.43;;
23222;SDS011;11780;13.904;100.620;2023-08-20T11:40:11;6.13;;;4.50;;
23222;SDS011;11780;13.904;100.620;2023-08-20T11:42:42;4.33;;;3.67;;
23222;SDS011;11780;13.904;100.620;2023-08-20T11:45:13;4.70;;;3.40;;
23222;SDS011;11780;13.904;100.620;2023-08-20T11:47:43;6.03;;;3.67;;
23222;SDS011;11780;13.904;100.620;2023-08-20T11:50:14;5.13;;;3.30;;
23222;SDS011;11780;13.904;100.620;2023-08-20T11:52:44;4.75;;;3.53;;
23222;SDS011;11780;13.904;100.620;2023-08-20T11:55:15;18.80;;;7.45;;
23222;SDS011;11780;13.904;100.620;2023-08-20T11:57:53;19.13;;;8.82;;
23222;SDS011;11780;13.904;100.620;2023-08-20T12:00:28;22.57;;;9.40;;
23222;SDS011;11780;13.904;100.620;2023-08-20T12:03:01;26.73;;;9.52;;
23222;SDS011;11780;13.904;100.620;2023-08-20T12:05:33;17.63;;;8.82;;
23222;SDS011;11780;13.904;100.620;2023-08-20T12:08:04;14.40;;;7.87;;
23222;SDS011;11780;13.904;100.620;2023-08-20T12:10:35;15.80;;;6.90;;
23222;SDS011;11780;13.904;100.620;2023-08-20T12:13:11;9.50;;;5.68;;
23222;SDS011;11780;13.904;100.620;2023-08-20T12:18:12;9.77;;;5.57;;
23222;SDS011;11780;13.904;100.620;2023-08-20T12:20:42;16.40;;;6.90;;
23222;SDS011;11780;13.904;100.620;2023-08-20T12:23:13;9.13;;;6.77;;
23222;SDS011;11780;13.904;100.620;2023-08-20T12:25:49;11.03;;;7.83;;
23222;SDS011;11780;13.904;100.620;2023-08-20T12:28:21;10.25;;;6.70;;
23222;SDS011;11780;13.904;100.620;2023-08-20T12:30:52;7.93;;;6.13;;
23222;SDS011;11780;13.904;100.620;2023-08-20T12:33:22;8.73;;;6.47;;
23222;SDS011;11780;13.904;100.620;2023-08-20T12:35:53;9.30;;;6.00;;
23222;SDS011;11780;13.904;100.620;2023-08-20T12:38:25;10.13;;;6.47;;
23222;SDS011;11780;13.904;100.620;2023-08-20T12:40:56;11.40;;;7.35;;
23222;SDS011;11780;13.904;100.620;2023-08-20T12:43:28;12.88;;;8.07;;
23222;SDS011;11780;13.904;100.620;2023-08-20T12:45:58;10.93;;;7.60;;
23222;SDS011;11780;13.904;100.620;2023-08-20T12:48:29;10.18;;;6.82;;
23222;SDS011;11780;13.904;100.620;2023-08-20T12:50:59;9.65;;;6.03;;
23222;SDS011;11780;13.904;100.620;2023-08-20T12:53:30;9.50;;;6.00;;
23222;SDS011;11780;13.904;100.620;2023-08-20T12:56:03;6.63;;;5.68;;
23222;SDS011;11780;13.904;100.620;2023-08-20T12:58:33;6.30;;;5.20;;
23222;SDS011;11780;13.904;100.620;2023-08-20T13:01:04;5.53;;;4.80;;
23222;SDS011;11780;13.904;100.620;2023-08-20T13:03:35;8.32;;;5.30;;
23222;SDS011;11780;13.904;100.620;2023-08-20T13:06:07;7.45;;;5.50;;
23222;SDS011;11780;13.904;100.620;2023-08-20T13:08:37;7.55;;;5.82;;
23222;SDS011;11780;13.904;100.620;2023-08-20T13:11:08;10.07;;;5.85;;
23222;SDS011;11780;13.904;100.620;2023-08-20T13:13:43;9.45;;;7.43;;
23222;SDS011;11780;13.904;100.620;2023-08-20T13:16:14;11.23;;;6.53;;
23222;SDS011;11780;13.904;100.620;2023-08-20T13:18:45;10.20;;;7.38;;
23222;SDS011;11780;13.904;100.620;2023-08-20T13:21:16;9.68;;;7.93;;
23222;SDS011;11780;13.904;100.620;2023-08-20T13:23:46;10.77;;;7.93;;
23222;SDS011;11780;13.904;100.620;2023-08-20T13:26:17;11.80;;;7.60;;
23222;SDS011;11780;13.904;100.620;2023-08-20T13:28:48;11.73;;;7.75;;
23222;SDS011;11780;13.904;100.620;2023-08-20T13:31:18;10.60;;;7.90;;
23222;SDS011;11780;13.904;100.620;2023-08-20T13:33:49;11.67;;;7.20;;
23222;SDS011;11780;13.904;100.620;2023-08-20T13:36:19;10.43;;;7.53;;
23222;SDS011;11780;13.904;100.620;2023-08-20T13:38:50;23.08;;;12.80;;
23222;SDS011;11780;13.904;100.620;2023-08-20T13:41:20;33.43;;;18.43;;
23222;SDS011;11780;13.904;100.620;2023-08-20T13:43:51;24.85;;;14.68;;
23222;SDS011;11780;13.904;100.620;2023-08-20T13:46:23;22.90;;;12.93;;
23222;SDS011;11780;13.904;100.620;2023-08-20T13:48:53;18.13;;;10.70;;
23222;SDS011;11780;13.904;100.620;2023-08-20T13:51:23;16.58;;;10.27;;
23222;SDS011;11780;13.904;100.620;2023-08-20T13:56:24;13.50;;;8.25;;
23222;SDS011;11780;13.904;100.620;2023-08-20T13:58:55;14.47;;;8.20;;
23222;SDS011;11780;13.904;100.620;2023-08-20T14:01:25;10.13;;;7.03;;
23222;SDS011;11780;13.904;100.620;2023-08-20T14:03:56;15.30;;;7.93;;
23222;SDS011;11780;13.904;100.620;2023-08-20T14:06:26;13.07;;;7.55;;
23222;SDS011;11780;13.904;100.620;2023-08-20T14:08:57;11.55;;;7.32;;
23222;SDS011;11780;13.904;100.620;2023-08-20T14:11:27;9.68;;;7.07;;
23222;SDS011;11780;13.904;100.620;2023-08-20T14:13:58;10.60;;;7.83;;
23222;SDS011;11780;13.904;100.620;2023-08-20T14:16:28;10.73;;;7.50;;
23222;SDS011;11780;13.904;100.620;2023-08-20T14:18:59;9.40;;;6.53;;
23222;SDS011;11780;13.904;100.620;2023-08-20T14:21:29;9.52;;;7.68;;
23222;SDS011;11780;13.904;100.620;2023-08-20T14:24:00;10.35;;;7.18;;
23222;SDS011;11780;13.904;100.620;2023-08-20T14:26:30;9.25;;;6.82;;
23222;SDS011;11780;13.904;100.620;2023-08-20T14:29:01;10.40;;;6.43;;
23222;SDS011;11780;13.904;100.620;2023-08-20T14:31:31;8.40;;;6.23;;
23222;SDS011;11780;13.904;100.620;2023-08-20T14:34:02;7.82;;;5.80;;
23222;SDS011;11780;13.904;100.620;2023-08-20T14:36:32;8.07;;;5.73;;
23222;SDS011;11780;13.904;100.620;2023-08-20T14:39:05;10.48;;;6.47;;
23222;SDS011;11780;13.904;100.620;2023-08-20T14:41:35;8.27;;;6.25;;
23222;SDS011;11780;13.904;100.620;2023-08-20T14:44:06;9.27;;;6.83;;
23222;SDS011;11780;13.904;100.620;2023-08-20T14:46:36;9.00;;;6.83;;
23222;SDS011;11780;13.904;100.620;2023-08-20T14:51:38;10.73;;;6.43;;
23222;SDS011;11780;13.904;100.620;2023-08-20T14:54:08;9.57;;;6.63;;
23222;SDS011;11780;13.904;100.620;2023-08-20T14:56:38;7.68;;;6.40;;
23222;SDS011;11780;13.904;100.620;2023-08-20T14:59:09;10.80;;;6.80;;
23222;SDS011;11780;13.904;100.620;2023-08-20T15:01:39;7.83;;;6.47;;
23222;SDS011;11780;13.904;100.620;2023-08-20T15:04:09;7.68;;;6.88;;
23222;SDS011;11780;13.904;100.620;2023-08-20T15:06:40;8.63;;;6.55;;
23222;SDS011;11780;13.904;100.620;2023-08-20T15:09:10;8.10;;;6.15;;
23222;SDS011;11780;13.904;100.620;2023-08-20T15:11:44;7.35;;;6.05;;
23222;SDS011;11780;13.904;100.620;2023-08-20T15:14:15;8.83;;;5.93;;
23222;SDS011;11780;13.904;100.620;2023-08-20T15:16:45;7.63;;;5.77;;
23222;SDS011;11780;13.904;100.620;2023-08-20T15:19:15;7.68;;;5.47;;
23222;SDS011;11780;13.904;100.620;2023-08-20T15:21:46;7.60;;;5.23;;
23222;SDS011;11780;13.904;100.620;2023-08-20T15:24:16;8.00;;;5.77;;
23222;SDS011;11780;13.904;100.620;2023-08-20T15:26:47;7.73;;;5.27;;
23222;SDS011;11780;13.904;100.620;2023-08-20T15:29:17;8.82;;;6.03;;
23222;SDS011;11780;13.904;100.620;2023-08-20T15:31:48;9.55;;;6.00;;
23222;SDS011;11780;13.904;100.620;2023-08-20T15:34:20;7.45;;;5.68;;
23222;SDS011;11780;13.904;100.620;2023-08-20T15:36:51;6.75;;;5.18;;
23222;SDS011;11780;13.904;100.620;2023-08-20T15:39:21;7.40;;;5.32;;
23222;SDS011;11780;13.904;100.620;2023-08-20T15:41:53;5.88;;;4.80;;
23222;SDS011;11780;13.904;100.620;2023-08-20T15:44:23;6.20;;;4.67;;
23222;SDS011;11780;13.904;100.620;2023-08-20T15:46:54;8.80;;;4.87;;
23222;SDS011;11780;13.904;100.620;2023-08-20T15:49:24;6.85;;;4.45;;
23222;SDS011;11780;13.904;100.620;2023-08-20T15:51:56;5.07;;;4.43;;
23222;SDS011;11780;13.904;100.620;2023-08-20T15:54:27;5.70;;;4.40;;
23222;SDS011;11780;13.904;100.620;2023-08-20T15:56:57;4.67;;;4.20;;
23222;SDS011;11780;13.904;100.620;2023-08-20T15:59:28;5.90;;;4.57;;
23222;SDS011;11780;13.904;100.620;2023-08-20T16:01:58;5.75;;;4.20;;
23222;SDS011;11780;13.904;100.620;2023-08-20T16:04:29;4.90;;;4.33;;
23222;SDS011;11780;13.904;100.620;2023-08-20T16:06:59;7.37;;;4.50;;
23222;SDS011;11780;13.904;100.620;2023-08-20T16:09:30;4.93;;;3.97;;
23222;SDS011;11780;13.904;100.620;2023-08-20T16:12:09;5.22;;;3.58;;
23222;SDS011;11780;13.904;100.620;2023-08-20T16:14:39;6.53;;;3.93;;
23222;SDS011;11780;13.904;100.620;2023-08-20T16:17:10;4.50;;;3.90;;
23222;SDS011;11780;13.904;100.620;2023-08-20T16:19:40;5.55;;;3.58;;
23222;SDS011;11780;13.904;100.620;2023-08-20T16:22:11;5.27;;;3.83;;
23222;SDS011;11780;13.904;100.620;2023-08-20T16:24:41;3.88;;;3.30;;
23222;SDS011;11780;13.904;100.620;2023-08-20T16:27:11;5.65;;;3.63;;
23222;SDS011;11780;13.904;100.620;2023-08-20T16:29:42;5.70;;;3.90;;
23222;SDS011;11780;13.904;100.620;2023-08-20T16:32:12;4.50;;;3.20;;
23222;SDS011;11780;13.904;100.620;2023-08-20T16:34:43;3.73;;;3.23;;
23222;SDS011;11780;13.904;100.620;2023-08-20T16:37:16;3.70;;;3.20;;
23222;SDS011;11780;13.904;100.620;2023-08-20T16:39:46;4.32;;;3.22;;
23222;SDS011;11780;13.904;100.620;2023-08-20T16:42:16;5.05;;;3.35;;
23222;SDS011;11780;13.904;100.620;2023-08-20T16:44:47;4.38;;;3.28;;
23222;SDS011;11780;13.904;100.620;2023-08-20T16:47:17;5.05;;;3.70;;
23222;SDS011;11780;13.904;100.620;2023-08-20T16:49:47;5.03;;;3.55;;
23222;SDS011;11780;13.904;100.620;2023-08-20T16:52:18;4.47;;;2.97;;
23222;SDS011;11780;13.904;100.620;2023-08-20T16:54:48;5.30;;;3.50;;
23222;SDS011;11780;13.904;100.620;2023-08-20T16:57:19;4.25;;;3.42;;
23222;SDS011;11780;13.904;100.620;2023-08-20T16:59:49;5.17;;;3.53;;
23222;SDS011;11780;13.904;100.620;2023-08-20T17:02:21;7.18;;;3.80;;
23222;SDS011;11780;13.904;100.620;2023-08-20T17:04:51;4.70;;;3.37;;
23222;SDS011;11780;13.904;100.620;2023-08-20T17:07:23;5.75;;;3.50;;
23222;SDS011;11780;13.904;100.620;2023-08-20T17:09:54;6.10;;;3.60;;
23222;SDS011;11780;13.904;100.620;2023-08-20T17:12:25;6.13;;;3.75;;
23222;SDS011;11780;13.904;100.620;2023-08-20T17:14:56;6.47;;;3.90;;
23222;SDS011;11780;13.904;100.620;2023-08-20T17:20:00;6.35;;;3.65;;
23222;SDS011;11780;13.904;100.620;2023-08-20T17:22:30;5.72;;;3.92;;
23222;SDS011;11780;13.904;100.620;2023-08-20T17:25:01;5.07;;;3.70;;
23222;SDS011;11780;13.904;100.620;2023-08-20T22:59:06;17.35;;;11.82;;
23222;SDS011;11780;13.904;100.620;2023-08-20T23:01:37;16.63;;;12.20;;
23222;SDS011;11780;13.904;100.620;2023-08-20T23:04:08;16.60;;;12.43;;
23222;SDS011;11780;13.904;100.620;2023-08-20T23:06:39;18.40;;;11.77;;
23222;SDS011;11780;13.904;100.620;2023-08-20T23:09:10;13.93;;;10.55;;
23222;SDS011;11780;13.904;100.620;2023-08-20T23:11:40;14.57;;;10.18;;
23222;SDS011;11780;13.904;100.620;2023-08-20T23:14:11;19.25;;;10.02;;
23222;SDS011;11780;13.904;100.620;2023-08-20T23:16:41;12.27;;;8.87;;
23222;SDS011;11780;13.904;100.620;2023-08-20T23:19:12;16.00;;;9.87;;
23222;SDS011;11780;13.904;100.620;2023-08-20T23:21:42;13.60;;;9.03;;
23222;SDS011;11780;13.904;100.620;2023-08-20T23:24:13;10.80;;;8.07;;
23222;SDS011;11780;13.904;100.620;2023-08-20T23:26:43;12.75;;;8.48;;
23222;SDS011;11780;13.904;100.620;2023-08-20T23:29:13;10.45;;;8.52;;
23222;SDS011;11780;13.904;100.620;2023-08-20T23:31:44;9.05;;;7.22;;
23222;SDS011;11780;13.904;100.620;2023-08-20T23:34:14;10.32;;;7.15;;
23222;SDS011;11780;13.904;100.620;2023-08-20T23:36:45;11.10;;;6.75;;
23222;SDS011;11780;13.904;100.620;2023-08-20T23:39:15;12.43;;;7.95;;
23222;SDS011;11780;13.904;100.620;2023-08-20T23:41:47;11.18;;;7.57;;
23222;SDS011;11780;13.904;100.620;2023-08-20T23:44:17;15.95;;;11.25;;
23222;SDS011;11780;13.904;100.620;2023-08-20T23:46:48;12.23;;;7.20;;
23222;SDS011;11780;13.904;100.620;2023-08-20T23:49:18;11.57;;;7.30;;
23222;SDS011;11780;13.904;100.620;2023-08-20T23:51:49;10.47;;;7.40;;
23222;SDS011;11780;13.904;100.620;2023-08-20T23:54:19;11.80;;;7.30;;
23222;SDS011;11780;13.904;100.620;2023-08-20T23:56:49;18.73;;;7.73;;
23222;SDS011;11780;13.904;100.620;2023-08-20T23:59:22;8.52;;;6.57;;
